Time;durP1;ratioP1;P1;durP2;ratioP2;P2;SDS_P1;SDS_P2;PMS_P1;PMS_P2;Temp;Humidity;BMP_temperature;BMP_pressure;BME280_temperature;BME280_humidity;BME280_pressure;Samples;Min_cycle;Max_cycle;Signal;HPM_P1;HPM_P2
2021/05/02 00:00:59;;;;;;;25.65;16.50;;;;;;;5.46;76.54;101506.13;5306137;28;20065;-67
2021/05/02 00:03:31;;;;;;;20.40;17.08;;;;;;;5.40;76.77;101498.66;5308435;28;20060;-67
2021/05/02 00:06:05;;;;;;;21.60;17.30;;;;;;;5.40;76.58;101508.19;5308512;28;20035;-67
2021/05/02 00:08:37;;;;;;;21.40;17.00;;;;;;;5.36;77.67;101508.34;5308219;28;20023;-68
2021/05/02 00:11:10;;;;;;;21.25;16.50;;;;;;;5.44;77.35;101512.31;5306126;28;20032;-67
2021/05/02 00:13:42;;;;;;;22.00;17.67;;;;;;;5.38;77.02;101510.91;5306962;28;20111;-67
2021/05/02 00:16:15;;;;;;;23.33;17.33;;;;;;;5.43;76.94;101506.28;5308598;28;20050;-67
2021/05/02 00:18:48;;;;;;;19.33;17.02;;;;;;;5.44;77.54;101507.13;5306343;28;20043;-67
2021/05/02 00:21:20;;;;;;;22.60;17.92;;;;;;;5.55;77.05;101510.81;5307117;28;20034;-68
2021/05/02 00:23:51;;;;;;;23.83;18.13;;;;;;;5.52;76.99;101513.59;5308206;28;20032;-67
2021/05/02 00:26:24;;;;;;;21.42;17.75;;;;;;;5.43;77.59;101519.28;5306650;28;20032;-68
2021/05/02 00:28:56;;;;;;;23.25;18.60;;;;;;;5.39;77.69;101506.53;5304017;28;20031;-68
2021/05/02 00:31:27;;;;;;;24.02;18.55;;;;;;;5.33;77.64;101513.72;5302737;28;20024;-67
2021/05/02 00:33:59;;;;;;;24.13;18.45;;;;;;;5.28;78.18;101510.53;5306490;28;20108;-67
2021/05/02 00:36:30;;;;;;;20.23;17.13;;;;;;;5.31;77.14;101510.38;5306644;28;20031;-67
2021/05/02 00:39:03;;;;;;;20.02;17.38;;;;;;;5.31;77.36;101512.97;5308184;28;20026;-67
2021/05/02 00:41:35;;;;;;;20.65;18.40;;;;;;;5.27;78.25;101515.81;5308994;28;20024;-68
2021/05/02 00:44:13;;;;;;;24.08;18.75;;;;;;;5.26;77.66;101520.13;5307488;28;20024;-68
2021/05/02 00:46:53;;;;;;;22.33;18.70;;;;;;;5.22;78.62;101523.81;5305815;28;20123;-68
2021/05/02 00:50:05;;;;;;;25.63;19.23;;;;;;;5.15;78.03;101519.00;5288038;28;20024;-67
2021/05/02 00:52:49;;;;;;;22.25;18.67;;;;;;;5.21;78.29;101519.53;5230790;28;20037;-68
2021/05/02 00:55:21;;;;;;;22.92;17.77;;;;;;;5.10;78.52;101519.25;5230489;28;20429;-67
2021/05/02 00:58:00;;;;;;;23.65;18.73;;;;;;;5.07;79.33;101517.66;5279804;28;20051;-67
2021/05/02 01:00:34;;;;;;;21.70;18.77;;;;;;;5.02;79.24;101524.00;5289951;28;20028;-66
2021/05/02 01:03:07;;;;;;;24.17;20.05;;;;;;;5.01;79.35;101517.97;5306847;28;20570;-66
2021/05/02 01:05:42;;;;;;;23.45;18.67;;;;;;;5.01;79.29;101525.78;5305705;28;20389;-66
2021/05/02 01:08:13;;;;;;;23.40;17.63;;;;;;;4.95;77.54;101520.03;5307765;28;20032;-66
2021/05/02 01:10:45;;;;;;;24.80;19.25;;;;;;;4.81;79.29;101523.31;5308323;28;20032;-66
2021/05/02 01:13:19;;;;;;;23.45;18.67;;;;;;;4.79;79.08;101532.94;5305070;28;20054;-66
2021/05/02 01:15:52;;;;;;;20.95;18.60;;;;;;;4.72;79.42;101536.75;5305030;28;20477;-67
2021/05/02 01:18:26;;;;;;;22.48;19.23;;;;;;;4.65;79.45;101515.44;5305197;28;20024;-66
2021/05/02 01:20:57;;;;;;;22.20;19.55;;;;;;;4.63;79.74;101532.88;5274026;28;20087;-67
2021/05/02 01:23:30;;;;;;;21.05;18.23;;;;;;;4.59;79.97;101529.59;5307945;28;20028;-67
2021/05/02 01:26:02;;;;;;;22.17;19.38;;;;;;;4.54;79.67;101525.50;5284370;28;20059;-66
2021/05/02 01:28:36;;;;;;;23.35;19.50;;;;;;;4.52;79.42;101527.34;5306357;28;20035;-66
2021/05/02 01:31:08;;;;;;;24.38;18.67;;;;;;;4.50;79.39;101531.75;5305872;28;20497;-66
2021/05/02 01:33:40;;;;;;;22.50;17.67;;;;;;;4.45;79.87;101528.56;5287639;28;20103;-66
2021/05/02 01:36:12;;;;;;;24.27;20.20;;;;;;;4.41;79.66;101524.44;5306286;28;20035;-66
2021/05/02 01:38:44;;;;;;;25.10;20.08;;;;;;;4.44;79.61;101532.09;5303762;28;20027;-66
2021/05/02 01:41:16;;;;;;;23.73;19.58;;;;;;;4.38;80.05;101525.41;5306428;28;20079;-66
2021/05/02 01:43:47;;;;;;;25.88;20.35;;;;;;;4.43;80.02;101525.19;5306280;28;20056;-67
2021/05/02 01:46:27;;;;;;;28.55;20.50;;;;;;;4.32;80.14;101526.56;5303052;28;20465;-67
2021/05/02 01:48:59;;;;;;;22.48;19.55;;;;;;;4.30;80.02;101536.16;5281651;28;20043;-67
2021/05/02 01:51:35;;;;;;;25.80;19.23;;;;;;;4.32;79.67;101538.69;5284737;28;20072;-66
2021/05/02 01:54:07;;;;;;;25.35;20.40;;;;;;;4.19;80.04;101532.41;5284251;28;20031;-67
2021/05/02 01:56:39;;;;;;;22.80;19.25;;;;;;;4.18;79.74;101544.53;5284944;28;20442;-67
2021/05/02 01:59:13;;;;;;;24.52;20.25;;;;;;;4.16;80.41;101546.34;5284432;28;20103;-66
2021/05/02 02:01:44;;;;;;;32.80;20.92;;;;;;;4.13;80.73;101543.91;5284355;28;20038;-67
2021/05/02 02:04:15;;;;;;;23.83;18.42;;;;;;;4.14;80.10;101543.00;5280935;28;20025;-66
2021/05/02 02:06:48;;;;;;;22.05;19.75;;;;;;;4.10;80.38;101544.03;5282227;28;20047;-66
2021/05/02 02:09:21;;;;;;;23.23;19.45;;;;;;;4.05;81.15;101544.28;5285556;28;20527;-66
2021/05/02 02:11:53;;;;;;;23.70;18.63;;;;;;;4.08;79.59;101557.06;5284844;28;20097;-66
2021/05/02 02:14:25;;;;;;;26.23;19.17;;;;;;;4.04;80.52;101544.31;5278557;28;20055;-66
2021/05/02 02:16:56;;;;;;;23.25;18.88;;;;;;;4.00;80.30;101546.22;5282154;28;20114;-66
2021/05/02 02:19:28;;;;;;;22.35;19.13;;;;;;;3.97;80.41;101543.75;5282806;28;20108;-66
2021/05/02 02:22:00;;;;;;;21.50;18.15;;;;;;;3.98;80.67;101550.66;5277851;28;20039;-66
2021/05/02 02:24:57;;;;;;;23.55;19.60;;;;;;;4.02;80.68;101549.59;5282217;28;20381;-66
2021/05/02 02:27:31;;;;;;;22.95;18.55;;;;;;;3.91;80.68;101559.59;5282074;28;20537;-67
2021/05/02 02:30:06;;;;;;;23.85;18.42;;;;;;;3.97;80.41;101561.91;5281618;28;20028;-67
2021/05/02 02:32:46;;;;;;;24.25;18.52;;;;;;;4.00;80.52;101559.19;5283149;28;20481;-67
2021/05/02 02:35:20;;;;;;;21.65;17.98;;;;;;;3.97;79.80;101564.50;5285371;28;20439;-66
2021/05/02 02:37:55;;;;;;;22.73;18.80;;;;;;;3.86;81.03;101561.53;5265983;28;20056;-66
2021/05/02 02:40:29;;;;;;;21.15;17.85;;;;;;;3.92;80.38;101561.28;5264013;28;20489;-66
2021/05/02 02:43:03;;;;;;;21.58;17.85;;;;;;;3.89;80.37;101571.78;5283041;28;20482;-67
2021/05/02 02:45:37;;;;;;;21.70;18.25;;;;;;;3.94;80.91;101563.78;5283560;28;20119;-67
2021/05/02 02:48:12;;;;;;;22.48;17.67;;;;;;;3.88;80.15;101570.09;5289882;28;20093;-66
2021/05/02 02:50:44;;;;;;;22.75;18.52;;;;;;;3.73;81.54;101563.88;5295671;28;20063;-66
2021/05/02 02:53:20;;;;;;;22.15;18.63;;;;;;;3.74;81.11;101567.28;5295499;28;20059;-66
2021/05/02 02:56:06;;;;;;;24.80;18.48;;;;;;;3.83;80.83;101562.53;5275597;28;20085;-66
2021/05/02 02:58:57;;;;;;;21.15;17.30;;;;;;;3.80;81.34;101577.41;5296902;28;20455;-67
2021/05/02 03:01:29;;;;;;;21.38;18.60;;;;;;;3.62;81.53;101573.84;5293697;28;20017;-66
2021/05/02 03:04:03;;;;;;;22.08;18.05;;;;;;;3.62;81.67;101572.09;5297193;28;20554;-66
2021/05/02 03:06:35;;;;;;;23.30;19.55;;;;;;;3.56;81.44;101577.56;5297516;28;20020;-66
2021/05/02 03:09:07;;;;;;;22.38;17.58;;;;;;;3.55;81.55;101580.22;5295308;28;20496;-67
2021/05/02 03:11:39;;;;;;;20.70;17.85;;;;;;;3.58;80.74;101583.50;5300796;28;20030;-66
2021/05/02 03:14:12;;;;;;;23.63;17.98;;;;;;;3.47;80.77;101582.31;5300617;28;20496;-66
2021/05/02 03:16:44;;;;;;;28.13;19.27;;;;;;;3.54;80.83;101587.16;5299140;28;20065;-66
2021/05/02 03:19:27;;;;;;;23.13;16.98;;;;;;;3.54;81.32;101589.75;5300796;28;20512;-66
2021/05/02 03:22:22;;;;;;;24.50;19.08;;;;;;;3.56;81.42;101589.66;5291764;28;20476;-66
2021/05/02 03:24:59;;;;;;;24.90;17.88;;;;;;;3.49;81.93;101589.09;5300671;28;20065;-66
2021/05/02 03:27:46;;;;;;;22.65;17.65;;;;;;;3.56;81.71;101593.13;5297252;28;20028;-66
2021/05/02 03:30:21;;;;;;;26.08;18.55;;;;;;;3.43;81.56;101597.13;5308670;28;20817;-66
2021/05/02 03:32:54;;;;;;;22.70;18.95;;;;;;;3.37;81.47;101595.66;5308740;28;20040;-66
2021/05/02 03:35:31;;;;;;;23.80;17.27;;;;;;;3.37;81.66;101603.44;5308883;28;20028;-66
2021/05/02 03:38:11;;;;;;;22.48;18.17;;;;;;;3.33;81.90;101601.00;5307398;28;20038;-66
2021/05/02 03:40:43;;;;;;;23.20;17.70;;;;;;;3.26;81.50;101605.63;5307865;28;20035;-66
2021/05/02 03:43:15;;;;;;;20.67;18.23;;;;;;;3.23;81.80;101600.56;5288947;28;20123;-66
2021/05/02 03:45:46;;;;;;;21.58;18.25;;;;;;;3.22;81.79;101606.66;5289184;28;20491;-66
2021/05/02 03:48:17;;;;;;;22.80;17.90;;;;;;;3.15;81.27;101605.25;5308694;28;20455;-66
2021/05/02 03:50:49;;;;;;;23.98;18.13;;;;;;;3.09;81.75;101611.50;5307271;28;20053;-66
2021/05/02 03:53:20;;;;;;;26.75;17.33;;;;;;;3.08;81.81;101608.97;5308492;28;20023;-66
2021/05/02 03:55:51;;;;;;;25.13;17.02;;;;;;;3.05;82.05;101611.69;5293457;28;20066;-66
2021/05/02 03:58:22;;;;;;;24.45;18.60;;;;;;;3.04;81.74;101613.44;5285898;28;20036;-66
2021/05/02 04:00:54;;;;;;;21.70;16.88;;;;;;;3.03;81.85;101616.94;5293869;28;20030;-67
2021/05/02 04:03:25;;;;;;;25.10;17.23;;;;;;;2.99;81.86;101625.72;5297789;28;20443;-66
2021/05/02 04:05:56;;;;;;;22.20;16.33;;;;;;;2.96;81.48;101625.03;5296371;28;20110;-66
2021/05/02 04:08:29;;;;;;;22.23;16.52;;;;;;;2.94;82.24;101632.81;5284259;28;20057;-66
2021/05/02 04:11:00;;;;;;;23.15;16.75;;;;;;;2.90;82.03;101634.69;5300353;28;20028;-66
2021/05/02 04:13:31;;;;;;;23.83;16.80;;;;;;;2.91;82.15;101632.94;5300765;28;20028;-67
2021/05/02 04:16:02;;;;;;;25.80;16.90;;;;;;;2.90;82.09;101632.09;5298759;28;20024;-66
2021/05/02 04:18:34;;;;;;;23.40;16.52;;;;;;;2.89;82.08;101637.34;5298716;28;20035;-66
2021/05/02 04:21:05;;;;;;;19.67;15.93;;;;;;;2.85;81.74;101644.41;5272131;28;20024;-66
2021/05/02 04:23:37;;;;;;;22.52;16.70;;;;;;;2.84;81.84;101649.63;5306210;28;20050;-66
2021/05/02 04:26:08;;;;;;;19.52;15.85;;;;;;;2.82;81.93;101641.94;5307849;28;20039;-66
2021/05/02 04:28:40;;;;;;;20.08;15.23;;;;;;;2.81;81.51;101648.00;5305915;28;20118;-66
2021/05/02 04:31:11;;;;;;;21.60;15.88;;;;;;;2.83;82.33;101653.13;5306136;28;20031;-66
2021/05/02 04:33:43;;;;;;;18.48;15.32;;;;;;;2.80;82.12;101667.00;5307000;28;20031;-66
2021/05/02 04:36:15;;;;;;;20.77;15.98;;;;;;;2.85;82.21;101664.25;5307453;28;20024;-66
2021/05/02 04:38:46;;;;;;;21.58;15.93;;;;;;;2.81;82.54;101649.75;5307838;28;20100;-66
2021/05/02 04:41:17;;;;;;;20.42;15.80;;;;;;;2.91;82.11;101662.25;5307229;28;20028;-66
2021/05/02 04:43:49;;;;;;;21.85;15.25;;;;;;;2.90;82.16;101672.69;5307994;28;20027;-66
2021/05/02 04:46:20;;;;;;;21.63;16.58;;;;;;;2.98;82.32;101669.78;5307741;28;20172;-66
2021/05/02 04:48:51;;;;;;;23.23;16.08;;;;;;;3.06;82.59;101671.16;5305038;28;20081;-66
2021/05/02 04:51:23;;;;;;;24.08;15.88;;;;;;;3.17;82.70;101681.94;5305121;28;20027;-66
2021/05/02 04:53:54;;;;;;;20.55;16.20;;;;;;;3.25;82.55;101679.03;5304527;28;20055;-66
2021/05/02 04:56:25;;;;;;;21.25;15.77;;;;;;;3.37;82.88;101680.25;5306438;28;20036;-66
2021/05/02 04:58:57;;;;;;;18.13;15.50;;;;;;;3.41;82.47;101677.50;5308314;28;20127;-66
2021/05/02 05:01:28;;;;;;;20.25;15.68;;;;;;;3.47;82.63;101673.81;5306017;28;20555;-66
2021/05/02 05:03:59;;;;;;;24.35;16.77;;;;;;;3.58;82.84;101681.97;5308274;28;20106;-66
2021/05/02 05:06:31;;;;;;;24.55;15.77;;;;;;;3.69;82.51;101688.47;5306569;28;20036;-66
2021/05/02 05:09:04;;;;;;;25.30;16.05;;;;;;;3.74;83.43;101689.09;5306590;28;20020;-66
2021/05/02 05:11:37;;;;;;;21.13;15.10;;;;;;;3.80;82.82;101692.28;5288182;28;20615;-66
2021/05/02 05:14:08;;;;;;;21.05;15.65;;;;;;;3.75;82.40;101693.38;5289762;28;20023;-66
2021/05/02 05:16:39;;;;;;;24.20;15.88;;;;;;;3.77;82.90;101686.38;5287802;28;20050;-66
2021/05/02 05:19:10;;;;;;;22.67;16.10;;;;;;;3.83;83.00;101696.50;5306104;28;20115;-66
2021/05/02 05:21:42;;;;;;;20.52;15.43;;;;;;;3.84;83.17;101699.00;5305393;28;20089;-66
2021/05/02 05:24:13;;;;;;;20.20;14.90;;;;;;;3.88;82.93;101710.94;5306860;28;20026;-66
2021/05/02 05:26:44;;;;;;;21.10;15.10;;;;;;;3.91;83.14;101707.38;5286577;28;20082;-66
2021/05/02 05:29:15;;;;;;;21.80;15.70;;;;;;;3.83;82.95;101699.09;5307070;28;20469;-66
2021/05/02 05:31:47;;;;;;;19.33;13.75;;;;;;;3.98;82.31;101715.69;5303826;28;20364;-67
2021/05/02 05:34:18;;;;;;;21.60;15.15;;;;;;;3.98;82.31;101713.09;5305508;28;20020;-67
2021/05/02 05:36:49;;;;;;;21.23;14.52;;;;;;;4.09;81.65;101729.91;5286789;28;20024;-67
2021/05/02 05:39:21;;;;;;;21.17;15.27;;;;;;;4.16;82.28;101720.09;5287321;28;20043;-67
2021/05/02 05:41:52;;;;;;;19.75;14.57;;;;;;;4.27;81.83;101719.63;5306177;28;20122;-67
2021/05/02 05:44:23;;;;;;;17.88;14.23;;;;;;;4.34;81.41;101719.28;5292168;28;20028;-67
2021/05/02 05:46:55;;;;;;;18.35;14.40;;;;;;;4.45;81.75;101728.34;5299119;28;20349;-68
2021/05/02 05:49:26;;;;;;;14.88;13.05;;;;;;;4.47;80.66;101729.09;5297632;28;20028;-67
2021/05/02 05:51:57;;;;;;;21.20;14.07;;;;;;;4.52;81.79;101729.75;5297829;28;20031;-67
2021/05/02 05:54:29;;;;;;;21.20;13.65;;;;;;;4.58;81.07;101730.31;5296992;28;20492;-67
2021/05/02 05:57:00;;;;;;;24.70;13.38;;;;;;;4.67;80.99;101738.59;5298850;28;20039;-67
2021/05/02 05:59:31;;;;;;;16.98;13.27;;;;;;;4.79;80.94;101735.44;5298088;28;20396;-67
2021/05/02 06:02:03;;;;;;;19.05;12.90;;;;;;;4.90;81.27;101737.53;5297489;28;20081;-67
2021/05/02 06:04:34;;;;;;;16.38;12.05;;;;;;;5.02;79.77;101735.19;5298475;28;20086;-67
2021/05/02 06:07:05;;;;;;;16.65;11.50;;;;;;;5.12;79.28;101735.63;5298443;28;20035;-67
2021/05/02 06:09:37;;;;;;;18.92;11.68;;;;;;;5.20;79.45;101733.50;5298271;28;20024;-67
2021/05/02 06:12:08;;;;;;;15.52;10.93;;;;;;;5.34;78.30;101738.88;5296180;28;20035;-67
2021/05/02 06:14:40;;;;;;;17.90;12.15;;;;;;;5.46;79.07;101742.63;5296461;28;20043;-67
2021/05/02 06:17:11;;;;;;;17.38;10.52;;;;;;;5.60;78.46;101745.34;5293389;28;20036;-67
2021/05/02 06:19:43;;;;;;;15.38;10.63;;;;;;;5.79;78.36;101741.84;5296896;28;20039;-67
2021/05/02 06:22:14;;;;;;;14.63;10.15;;;;;;;5.90;77.40;101744.75;5297172;28;20103;-68
2021/05/02 06:24:46;;;;;;;17.60;10.05;;;;;;;6.03;77.06;101752.81;5296044;28;20504;-67
2021/05/02 06:27:18;;;;;;;17.70;9.15;;;;;;;6.14;76.75;101741.81;5296386;28;20024;-67
2021/05/02 06:29:49;;;;;;;12.60;9.20;;;;;;;6.36;76.42;101749.38;5298636;28;20378;-67
2021/05/02 06:32:20;;;;;;;18.85;8.35;;;;;;;6.41;75.86;101747.38;5296554;28;20052;-67
2021/05/02 06:34:52;;;;;;;15.32;7.57;;;;;;;6.54;74.92;101753.59;5296854;28;20036;-67
2021/05/02 06:37:24;;;;;;;14.75;7.78;;;;;;;6.65;74.75;101750.44;5295593;28;20114;-67
2021/05/02 06:39:56;;;;;;;8.82;7.13;;;;;;;6.64;73.09;101744.38;5297806;28;20035;-68
2021/05/02 06:42:27;;;;;;;10.13;7.20;;;;;;;6.79;73.24;101745.31;5298954;28;20550;-67
2021/05/02 06:44:58;;;;;;;11.93;7.15;;;;;;;6.89;72.50;101746.47;5296353;28;20028;-68
2021/05/02 06:47:30;;;;;;;9.93;7.00;;;;;;;6.92;72.33;101746.31;5296816;28;20455;-66
2021/05/02 06:50:01;;;;;;;12.18;7.63;;;;;;;7.15;72.36;101744.19;5295742;28;20524;-66
2021/05/02 06:52:33;;;;;;;15.20;6.57;;;;;;;7.30;72.60;101751.16;5298025;28;20026;-66
2021/05/02 06:55:04;;;;;;;11.23;7.07;;;;;;;7.41;71.80;101753.16;5282955;28;20032;-67
2021/05/02 06:57:36;;;;;;;10.82;5.57;;;;;;;7.51;71.00;101757.78;5283792;28;20293;-66
2021/05/02 07:00:08;;;;;;;10.88;4.70;;;;;;;7.60;69.99;101765.97;5283047;28;20032;-68
2021/05/02 07:02:39;;;;;;;7.63;4.10;;;;;;;7.66;68.52;101760.44;5296223;28;20040;-67
2021/05/02 07:05:11;;;;;;;7.85;3.85;;;;;;;7.56;67.68;101760.09;5297157;28;20040;-67
2021/05/02 07:07:42;;;;;;;6.85;3.47;;;;;;;7.61;67.67;101765.06;5292031;28;20048;-67
2021/05/02 07:10:13;;;;;;;8.60;3.35;;;;;;;7.75;67.99;101765.09;5290648;28;20477;-67
2021/05/02 07:12:45;;;;;;;9.32;3.50;;;;;;;7.84;65.68;101764.56;5292385;28;20036;-68
2021/05/02 07:15:16;;;;;;;5.95;2.47;;;;;;;7.94;65.36;101770.06;5291873;28;20046;-68
2021/05/02 07:17:49;;;;;;;7.78;2.75;;;;;;;7.93;64.72;101774.47;5296172;28;20205;-68
2021/05/02 07:20:21;;;;;;;10.25;2.85;;;;;;;7.98;64.30;101782.84;5289463;28;20112;-68
2021/05/02 07:22:54;;;;;;;8.50;3.10;;;;;;;8.12;64.23;101795.09;5295014;28;20584;-67
2021/05/02 07:25:26;;;;;;;4.82;2.15;;;;;;;8.08;63.36;101784.94;5288487;28;20386;-68
2021/05/02 07:27:58;;;;;;;8.07;2.60;;;;;;;8.16;63.38;101782.69;5295233;28;20059;-68
2021/05/02 07:30:29;;;;;;;5.43;2.65;;;;;;;8.42;63.68;101782.00;5295680;28;20117;-68
2021/05/02 07:33:00;;;;;;;5.45;2.47;;;;;;;8.57;62.97;101795.06;5281647;28;20034;-68
2021/05/02 07:35:32;;;;;;;6.05;2.83;;;;;;;8.81;61.13;101792.72;5294379;28;20500;-68
2021/05/02 07:38:03;;;;;;;5.10;2.03;;;;;;;9.06;61.10;101803.31;5295597;28;20031;-67
2021/05/02 07:40:34;;;;;;;9.60;2.92;;;;;;;9.18;59.72;101792.06;5296139;28;20036;-67
2021/05/02 07:43:07;;;;;;;6.72;2.80;;;;;;;9.47;60.26;101792.81;5291353;28;20036;-67
2021/05/02 07:45:38;;;;;;;4.28;2.00;;;;;;;9.54;58.09;101788.00;5301732;28;20433;-67
2021/05/02 07:48:10;;;;;;;7.78;2.47;;;;;;;9.60;57.63;101784.16;5303606;28;20136;-67
2021/05/02 07:50:41;;;;;;;6.90;2.40;;;;;;;9.66;57.77;101791.59;5300946;28;20441;-67
2021/05/02 07:53:12;;;;;;;3.85;1.95;;;;;;;9.68;56.41;101794.97;5304072;28;20036;-68
2021/05/02 07:55:44;;;;;;;5.20;1.70;;;;;;;9.46;53.40;101801.59;5305756;28;20103;-68
2021/05/02 07:58:15;;;;;;;7.00;1.70;;;;;;;9.50;54.47;101807.47;5286221;28;20475;-68
2021/05/02 08:00:47;;;;;;;6.05;2.00;;;;;;;9.80;55.41;101796.75;5297640;28;20576;-68
2021/05/02 08:03:18;;;;;;;3.80;1.63;;;;;;;9.82;52.67;101802.75;5305079;28;20108;-68
2021/05/02 08:05:49;;;;;;;3.78;1.30;;;;;;;10.04;53.46;101798.69;5304575;28;20038;-68
2021/05/02 08:08:21;;;;;;;4.95;1.50;;;;;;;10.16;53.38;101805.72;5287333;28;20480;-68
2021/05/02 08:10:52;;;;;;;3.55;1.63;;;;;;;9.95;52.44;101798.34;5280966;28;20162;-68
2021/05/02 08:13:23;;;;;;;4.82;1.60;;;;;;;9.86;52.29;101798.97;5303490;28;20476;-68
2021/05/02 08:15:54;;;;;;;5.65;1.50;;;;;;;9.72;51.19;101807.72;5306753;28;20028;-68
2021/05/02 08:18:26;;;;;;;4.10;1.60;;;;;;;9.63;51.81;101799.66;5308577;28;20148;-68
2021/05/02 08:20:58;;;;;;;4.30;1.60;;;;;;;9.65;51.47;101800.38;5306084;28;20028;-68
2021/05/02 08:23:29;;;;;;;4.83;1.60;;;;;;;9.72;51.33;101799.88;5300271;28;20020;-69
2021/05/02 08:26:02;;;;;;;4.75;1.63;;;;;;;9.65;51.39;101805.63;5295160;28;20762;-68
2021/05/02 08:28:33;;;;;;;3.22;1.27;;;;;;;9.52;51.64;101810.00;5293506;28;20031;-68
2021/05/02 08:31:08;;;;;;;6.78;1.50;;;;;;;9.36;52.52;101810.16;5291295;28;20385;-68
2021/05/02 08:33:40;;;;;;;5.53;2.20;;;;;;;9.20;52.15;101810.25;5276506;28;20028;-68
2021/05/02 08:36:12;;;;;;;3.75;1.67;;;;;;;9.17;52.94;101815.72;5280363;28;20028;-68
2021/05/02 08:38:43;;;;;;;4.10;1.80;;;;;;;9.45;52.60;101814.78;5295079;28;20436;-68
2021/05/02 08:41:15;;;;;;;4.97;1.50;;;;;;;9.69;51.63;101809.72;5285106;28;20534;-67
2021/05/02 08:43:54;;;;;;;3.83;1.58;;;;;;;10.03;51.64;101810.09;5297113;28;20547;-68
2021/05/02 08:46:26;;;;;;;5.78;1.50;;;;;;;10.41;50.81;101808.34;5303606;28;20039;-68
2021/05/02 08:48:57;;;;;;;3.70;1.42;;;;;;;10.41;47.86;101799.66;5286595;28;20642;-68
2021/05/02 08:51:29;;;;;;;3.80;1.60;;;;;;;10.51;46.19;101808.56;5300341;28;20412;-68
2021/05/02 08:54:00;;;;;;;4.95;1.85;;;;;;;10.74;47.67;101795.66;5297454;28;20024;-68
2021/05/02 08:56:31;;;;;;;3.45;1.48;;;;;;;10.82;44.66;101798.56;5295456;28;20067;-68
2021/05/02 08:59:03;;;;;;;3.45;1.70;;;;;;;10.87;44.99;101789.44;5281963;28;20651;-68
2021/05/02 09:01:35;;;;;;;3.50;1.50;;;;;;;11.15;45.75;101795.34;5298925;28;20089;-68
2021/05/02 09:04:08;;;;;;;3.88;1.50;;;;;;;11.03;45.49;101802.31;5298010;28;20027;-68
2021/05/02 09:06:42;;;;;;;3.17;1.77;;;;;;;10.83;45.33;101795.81;5291609;28;20036;-69
2021/05/02 09:09:13;;;;;;;4.90;2.08;;;;;;;10.53;46.15;101811.94;5297554;28;20036;-69
2021/05/02 09:11:49;;;;;;;6.07;2.25;;;;;;;10.34;47.40;101811.50;5295822;28;20035;-69
2021/05/02 09:14:22;;;;;;;6.70;1.98;;;;;;;10.05;47.83;101814.28;5292460;28;20041;-69
2021/05/02 09:16:58;;;;;;;6.20;2.33;;;;;;;10.01;48.27;101823.31;5278446;28;20115;-69
2021/05/02 09:19:43;;;;;;;6.78;2.13;;;;;;;9.86;49.34;101825.16;5294843;28;20027;-69
2021/05/02 09:22:16;;;;;;;6.32;2.30;;;;;;;9.73;49.60;101819.03;5291642;28;20477;-69
2021/05/02 09:25:00;;;;;;;4.80;1.93;;;;;;;9.75;50.43;101817.16;5296024;28;20039;-69
2021/05/02 09:27:32;;;;;;;4.20;1.52;;;;;;;9.79;48.26;101821.25;5294745;28;20054;-69
2021/05/02 09:30:18;;;;;;;5.43;1.70;;;;;;;10.24;49.06;101809.50;5292195;28;20028;-68
2021/05/02 09:32:49;;;;;;;4.18;1.23;;;;;;;10.52;47.13;101809.41;5282134;28;20028;-68
2021/05/02 09:35:27;;;;;;;4.97;1.95;;;;;;;10.91;47.62;101811.88;5262324;28;20024;-69
2021/05/02 09:38:16;;;;;;;6.95;1.70;;;;;;;11.34;46.17;101805.34;5293281;28;20027;-69
2021/05/02 09:40:52;;;;;;;3.63;1.60;;;;;;;11.51;42.78;101807.56;5298789;28;20054;-68
2021/05/02 09:43:36;;;;;;;4.07;1.35;;;;;;;11.72;42.19;101801.69;5300999;28;20372;-69
2021/05/02 09:49:08;;;;;;;5.07;1.15;;;;;;;11.35;41.98;101805.22;5293796;28;20048;-69
2021/05/02 09:51:48;;;;;;;4.82;1.55;;;;;;;11.12;42.93;101816.53;5294674;28;20036;-68
2021/05/02 09:54:21;;;;;;;4.97;1.52;;;;;;;10.80;42.17;101817.03;5296466;28;20026;-68
2021/05/02 09:56:54;;;;;;;3.85;1.30;;;;;;;10.67;43.95;101818.81;5288957;28;20684;-69
2021/05/02 09:59:31;;;;;;;;;;;;;;;10.91;44.89;101816.25;5285499;28;20043;-69
2021/05/02 10:02:11;;;;;;;3.67;1.40;;;;;;;10.72;46.91;101808.88;5292128;28;20435;-69
2021/05/02 10:04:49;;;;;;;4.40;1.50;;;;;;;10.72;46.23;101811.50;5298053;28;20054;-68
2021/05/02 10:07:24;;;;;;;7.07;1.80;;;;;;;10.79;44.80;101812.72;5281219;28;20048;-68
2021/05/02 10:09:56;;;;;;;4.93;1.33;;;;;;;10.84;44.63;101813.25;5297879;28;20020;-68
2021/05/02 10:12:27;;;;;;;3.33;1.40;;;;;;;10.95;44.47;101813.34;5294886;28;20031;-69
2021/05/02 10:15:00;;;;;;;5.82;1.40;;;;;;;11.01;44.59;101812.03;5290135;28;20788;-69
2021/05/02 10:17:31;;;;;;;7.43;2.45;;;;;;;11.08;45.44;101810.66;5292748;28;20044;-68
2021/05/02 10:20:03;;;;;;;3.10;1.30;;;;;;;11.01;44.38;101819.09;5296287;28;20107;-68
2021/05/02 10:22:34;;;;;;;3.72;1.20;;;;;;;10.89;43.99;101815.53;5293926;28;20493;-67
2021/05/02 10:25:11;;;;;;;4.80;1.05;;;;;;;10.92;43.14;101812.72;5294192;28;20026;-67
2021/05/02 10:27:48;;;;;;;4.47;1.45;;;;;;;10.84;44.47;101815.88;5291734;28;20040;-68
2021/05/02 10:30:29;;;;;;;3.63;1.27;;;;;;;10.85;45.34;101811.47;5290212;28;20039;-68
2021/05/02 10:33:09;;;;;;;2.65;1.08;;;;;;;10.70;44.44;101816.84;5296942;28;20028;-69
2021/05/02 10:35:45;;;;;;;5.10;1.10;;;;;;;10.56;44.21;101821.34;5295739;28;20047;-68
2021/05/02 10:38:20;;;;;;;4.78;1.20;;;;;;;10.52;44.42;101825.13;5292047;28;20550;-68
2021/05/02 10:40:51;;;;;;;2.35;1.08;;;;;;;10.47;45.32;101826.28;5297264;28;20065;-68
2021/05/02 10:43:28;;;;;;;3.75;1.67;;;;;;;10.52;45.79;101822.50;5293042;28;20559;-68
2021/05/02 10:46:00;;;;;;;8.68;2.08;;;;;;;10.79;45.57;101825.81;5299221;28;20061;-68
2021/05/02 10:48:35;;;;;;;4.35;1.52;;;;;;;11.44;46.33;101832.59;5291852;28;20551;-68
2021/05/02 10:51:24;;;;;;;5.78;1.48;;;;;;;11.82;43.84;101816.66;5290218;28;20156;-68
2021/05/02 10:54:09;;;;;;;4.60;1.40;;;;;;;12.07;41.97;101814.81;5288962;28;20034;-69
2021/05/02 10:56:43;;;;;;;4.40;1.48;;;;;;;12.17;41.33;101821.91;5291457;28;20028;-69
2021/05/02 10:59:16;;;;;;;4.35;1.88;;;;;;;12.30;41.70;101810.44;5290644;28;20463;-66
2021/05/02 11:01:47;;;;;;;5.05;1.45;;;;;;;12.22;41.19;101810.19;5273970;28;20028;-68
2021/05/02 11:04:19;;;;;;;4.93;1.65;;;;;;;12.15;40.88;101809.81;5281862;28;20393;-68
2021/05/02 11:06:53;;;;;;;4.53;1.60;;;;;;;11.98;41.31;101818.97;5292549;28;20035;-68
2021/05/02 11:09:27;;;;;;;3.40;1.60;;;;;;;11.83;41.00;101813.09;5293816;28;20042;-68
2021/05/02 11:11:58;;;;;;;3.72;1.52;;;;;;;11.81;42.20;101812.31;5291568;28;20024;-67
2021/05/02 11:14:32;;;;;;;2.92;1.35;;;;;;;11.68;41.93;101827.31;5290145;28;20031;-68
2021/05/02 11:17:03;;;;;;;3.47;1.30;;;;;;;11.63;41.90;101821.56;5291510;28;20146;-67
2021/05/02 11:19:35;;;;;;;3.60;1.40;;;;;;;11.36;41.41;101822.63;5292888;28;20930;-68
2021/05/02 11:22:08;;;;;;;3.60;1.50;;;;;;;11.18;41.30;101827.44;5288276;28;20473;-66
2021/05/02 11:24:39;;;;;;;3.00;1.40;;;;;;;11.16;43.21;101823.22;5289235;28;20131;-67
2021/05/02 11:32:30;;;;;;;5.32;2.03;;;;;;;11.40;44.55;101831.97;5296389;28;20039;-67
2021/05/02 11:35:06;;;;;;;3.25;1.75;;;;;;;11.73;44.56;101838.31;5296630;28;20096;-67
2021/05/02 11:37:44;;;;;;;4.35;1.70;;;;;;;11.85;42.92;101828.72;5296095;28;20443;-67
2021/05/02 11:40:18;;;;;;;3.63;1.98;;;;;;;12.25;42.27;101830.97;5297461;28;20039;-67
2021/05/02 11:43:16;;;;;;;3.88;1.50;;;;;;;12.52;41.43;101828.84;5297994;28;20046;-66
2021/05/02 11:45:54;;;;;;;4.28;2.00;;;;;;;12.30;40.58;101828.84;5295637;28;20093;-67
2021/05/02 11:48:32;;;;;;;5.50;1.90;;;;;;;12.15;40.88;101828.19;5304664;28;20044;-67
2021/05/02 11:51:16;;;;;;;5.47;2.90;;;;;;;11.89;43.54;101831.03;5303659;28;20171;-67
2021/05/02 11:53:51;;;;;;;4.40;2.60;;;;;;;11.78;45.12;101832.72;5305722;28;20032;-68
2021/05/02 11:56:29;;;;;;;6.55;2.75;;;;;;;11.55;45.64;101847.53;5304416;28;20085;-67
2021/05/02 11:59:09;;;;;;;4.40;2.50;;;;;;;11.51;46.54;101862.66;5299512;28;20459;-67